sensor_id;sensor_type;location;lat;lon;timestamp;P1;durP1;ratioP1;P2;durP2;ratioP2
18838;SDS011;9548;56.920;14.804;2023-03-11T00:00:06;4.97;;;1.73;;
18838;SDS011;9548;56.920;14.804;2023-03-11T00:02:37;5.63;;;1.95;;
18838;SDS011;9548;56.920;14.804;2023-03-11T00:05:04;3.67;;;1.83;;
18838;SDS011;9548;56.920;14.804;2023-03-11T00:07:34;5.90;;;1.88;;
18838;SDS011;9548;56.920;14.804;2023-03-11T00:10:02;3.97;;;1.90;;
18838;SDS011;9548;56.920;14.804;2023-03-11T00:12:29;4.20;;;1.80;;
18838;SDS011;9548;56.920;14.804;2023-03-11T00:14:56;5.10;;;2.03;;
18838;SDS011;9548;56.920;14.804;2023-03-11T00:17:23;4.85;;;1.83;;
18838;SDS011;9548;56.920;14.804;2023-03-11T00:19:50;6.63;;;1.63;;
18838;SDS011;9548;56.920;14.804;2023-03-11T00:22:17;3.13;;;1.88;;
18838;SDS011;9548;56.920;14.804;2023-03-11T00:24:45;2.65;;;1.70;;
18838;SDS011;9548;56.920;14.804;2023-03-11T00:27:12;5.68;;;1.83;;
18838;SDS011;9548;56.920;14.804;2023-03-11T00:29:39;2.78;;;1.48;;
18838;SDS011;9548;56.920;14.804;2023-03-11T00:32:06;6.78;;;1.95;;
18838;SDS011;9548;56.920;14.804;2023-03-11T00:34:33;8.05;;;1.92;;
18838;SDS011;9548;56.920;14.804;2023-03-11T00:37:00;5.00;;;2.03;;
18838;SDS011;9548;56.920;14.804;2023-03-11T00:39:27;3.03;;;1.50;;
18838;SDS011;9548;56.920;14.804;2023-03-11T00:41:55;3.40;;;1.80;;
18838;SDS011;9548;56.920;14.804;2023-03-11T00:44:22;2.22;;;1.52;;
18838;SDS011;9548;56.920;14.804;2023-03-11T00:46:49;3.55;;;2.00;;
18838;SDS011;9548;56.920;14.804;2023-03-11T00:49:16;3.80;;;1.67;;
18838;SDS011;9548;56.920;14.804;2023-03-11T00:51:43;4.32;;;1.88;;
18838;SDS011;9548;56.920;14.804;2023-03-11T00:54:10;4.20;;;1.85;;
18838;SDS011;9548;56.920;14.804;2023-03-11T00:56:37;4.18;;;1.55;;
18838;SDS011;9548;56.920;14.804;2023-03-11T00:59:07;4.28;;;2.08;;
18838;SDS011;9548;56.920;14.804;2023-03-11T01:01:34;3.17;;;1.60;;
18838;SDS011;9548;56.920;14.804;2023-03-11T01:04:00;5.35;;;1.67;;
18838;SDS011;9548;56.920;14.804;2023-03-11T01:06:27;6.68;;;2.10;;
18838;SDS011;9548;56.920;14.804;2023-03-11T01:08:54;4.65;;;1.90;;
18838;SDS011;9548;56.920;14.804;2023-03-11T01:11:21;3.85;;;1.33;;
18838;SDS011;9548;56.920;14.804;2023-03-11T01:13:48;5.30;;;1.50;;
18838;SDS011;9548;56.920;14.804;2023-03-11T01:16:16;5.68;;;1.73;;
18838;SDS011;9548;56.920;14.804;2023-03-11T01:18:45;2.63;;;1.60;;
18838;SDS011;9548;56.920;14.804;2023-03-11T01:21:12;2.95;;;1.50;;
18838;SDS011;9548;56.920;14.804;2023-03-11T01:23:39;4.55;;;1.88;;
18838;SDS011;9548;56.920;14.804;2023-03-11T01:26:07;3.47;;;1.67;;
18838;SDS011;9548;56.920;14.804;2023-03-11T01:28:34;3.92;;;1.60;;
18838;SDS011;9548;56.920;14.804;2023-03-11T01:31:01;6.30;;;1.60;;
18838;SDS011;9548;56.920;14.804;2023-03-11T01:33:29;3.78;;;1.33;;
18838;SDS011;9548;56.920;14.804;2023-03-11T01:35:56;5.43;;;1.88;;
18838;SDS011;9548;56.920;14.804;2023-03-11T01:38:23;2.05;;;1.55;;
18838;SDS011;9548;56.920;14.804;2023-03-11T01:40:50;2.63;;;1.30;;
18838;SDS011;9548;56.920;14.804;2023-03-11T01:43:35;8.45;;;2.10;;
18838;SDS011;9548;56.920;14.804;2023-03-11T01:46:13;3.63;;;1.50;;
18838;SDS011;9548;56.920;14.804;2023-03-11T01:48:45;2.95;;;1.58;;
18838;SDS011;9548;56.920;14.804;2023-03-11T01:51:14;3.70;;;1.42;;
18838;SDS011;9548;56.920;14.804;2023-03-11T01:53:44;6.05;;;1.60;;
18838;SDS011;9548;56.920;14.804;2023-03-11T01:56:11;4.18;;;1.73;;
18838;SDS011;9548;56.920;14.804;2023-03-11T01:58:41;3.05;;;1.83;;
18838;SDS011;9548;56.920;14.804;2023-03-11T02:01:13;3.05;;;1.92;;
18838;SDS011;9548;56.920;14.804;2023-03-11T02:03:40;2.75;;;1.58;;
18838;SDS011;9548;56.920;14.804;2023-03-11T02:06:10;4.32;;;1.48;;
18838;SDS011;9548;56.920;14.804;2023-03-11T02:08:40;4.28;;;1.80;;
18838;SDS011;9548;56.920;14.804;2023-03-11T02:11:09;3.83;;;1.58;;
18838;SDS011;9548;56.920;14.804;2023-03-11T02:13:38;3.45;;;1.60;;
18838;SDS011;9548;56.920;14.804;2023-03-11T02:16:07;2.47;;;1.45;;
18838;SDS011;9548;56.920;14.804;2023-03-11T02:18:34;6.75;;;1.70;;
18838;SDS011;9548;56.920;14.804;2023-03-11T02:21:07;2.28;;;1.58;;
18838;SDS011;9548;56.920;14.804;2023-03-11T02:23:46;3.88;;;1.73;;
18838;SDS011;9548;56.920;14.804;2023-03-11T02:26:20;6.38;;;1.67;;
18838;SDS011;9548;56.920;14.804;2023-03-11T02:28:51;3.10;;;1.50;;
18838;SDS011;9548;56.920;14.804;2023-03-11T02:31:19;5.68;;;1.80;;
18838;SDS011;9548;56.920;14.804;2023-03-11T02:33:46;3.85;;;1.55;;
18838;SDS011;9548;56.920;14.804;2023-03-11T02:36:35;3.20;;;1.70;;
18838;SDS011;9548;56.920;14.804;2023-03-11T02:39:03;2.15;;;1.38;;
18838;SDS011;9548;56.920;14.804;2023-03-11T02:41:31;2.97;;;1.75;;
18838;SDS011;9548;56.920;14.804;2023-03-11T02:44:01;4.55;;;1.92;;
18838;SDS011;9548;56.920;14.804;2023-03-11T02:46:30;3.60;;;1.60;;
18838;SDS011;9548;56.920;14.804;2023-03-11T02:48:57;6.18;;;2.33;;
18838;SDS011;9548;56.920;14.804;2023-03-11T02:51:25;5.40;;;1.80;;
18838;SDS011;9548;56.920;14.804;2023-03-11T02:53:53;4.35;;;1.80;;
18838;SDS011;9548;56.920;14.804;2023-03-11T02:56:23;4.30;;;1.77;;
18838;SDS011;9548;56.920;14.804;2023-03-11T02:58:50;5.53;;;2.20;;
18838;SDS011;9548;56.920;14.804;2023-03-11T03:01:18;4.30;;;1.45;;
18838;SDS011;9548;56.920;14.804;2023-03-11T03:03:46;4.38;;;1.95;;
18838;SDS011;9548;56.920;14.804;2023-03-11T03:06:13;4.68;;;1.98;;
18838;SDS011;9548;56.920;14.804;2023-03-11T03:08:40;3.78;;;2.10;;
18838;SDS011;9548;56.920;14.804;2023-03-11T03:11:07;5.40;;;1.95;;
18838;SDS011;9548;56.920;14.804;2023-03-11T03:13:34;4.38;;;1.92;;
18838;SDS011;9548;56.920;14.804;2023-03-11T03:16:01;6.40;;;2.00;;
18838;SDS011;9548;56.920;14.804;2023-03-11T03:18:30;3.63;;;2.00;;
18838;SDS011;9548;56.920;14.804;2023-03-11T03:20:57;6.95;;;2.10;;
18838;SDS011;9548;56.920;14.804;2023-03-11T03:23:24;6.00;;;2.30;;
18838;SDS011;9548;56.920;14.804;2023-03-11T03:25:51;5.60;;;1.90;;
18838;SDS011;9548;56.920;14.804;2023-03-11T03:28:17;5.55;;;2.35;;
18838;SDS011;9548;56.920;14.804;2023-03-11T03:30:44;3.10;;;1.98;;
18838;SDS011;9548;56.920;14.804;2023-03-11T03:33:12;4.93;;;2.47;;
18838;SDS011;9548;56.920;14.804;2023-03-11T03:35:40;6.22;;;2.28;;
18838;SDS011;9548;56.920;14.804;2023-03-11T03:38:08;5.43;;;2.13;;
18838;SDS011;9548;56.920;14.804;2023-03-11T03:40:35;6.03;;;2.17;;
18838;SDS011;9548;56.920;14.804;2023-03-11T03:43:03;3.63;;;1.60;;
18838;SDS011;9548;56.920;14.804;2023-03-11T03:45:30;6.18;;;2.05;;
18838;SDS011;9548;56.920;14.804;2023-03-11T03:47:57;5.03;;;2.50;;
18838;SDS011;9548;56.920;14.804;2023-03-11T03:50:24;6.15;;;2.42;;
18838;SDS011;9548;56.920;14.804;2023-03-11T03:52:52;4.80;;;2.20;;
18838;SDS011;9548;56.920;14.804;2023-03-11T03:55:19;3.83;;;2.33;;
18838;SDS011;9548;56.920;14.804;2023-03-11T03:57:46;5.53;;;2.70;;
18838;SDS011;9548;56.920;14.804;2023-03-11T04:00:13;6.23;;;2.70;;
18838;SDS011;9548;56.920;14.804;2023-03-11T04:02:41;6.57;;;2.30;;
18838;SDS011;9548;56.920;14.804;2023-03-11T04:05:08;7.13;;;2.90;;
18838;SDS011;9548;56.920;14.804;2023-03-11T04:07:36;6.37;;;2.60;;
18838;SDS011;9548;56.920;14.804;2023-03-11T04:10:04;6.27;;;2.40;;
18838;SDS011;9548;56.920;14.804;2023-03-11T04:12:32;5.43;;;2.47;;
18838;SDS011;9548;56.920;14.804;2023-03-11T04:14:59;5.20;;;2.30;;
18838;SDS011;9548;56.920;14.804;2023-03-11T04:17:26;5.95;;;2.28;;
18838;SDS011;9548;56.920;14.804;2023-03-11T04:19:53;7.68;;;2.53;;
18838;SDS011;9548;56.920;14.804;2023-03-11T04:22:20;6.47;;;2.67;;
18838;SDS011;9548;56.920;14.804;2023-03-11T04:24:47;8.07;;;2.83;;
18838;SDS011;9548;56.920;14.804;2023-03-11T04:27:15;5.03;;;2.33;;
18838;SDS011;9548;56.920;14.804;2023-03-11T04:29:42;7.05;;;2.72;;
18838;SDS011;9548;56.920;14.804;2023-03-11T04:32:09;5.45;;;2.53;;
18838;SDS011;9548;56.920;14.804;2023-03-11T04:34:36;7.97;;;2.60;;
18838;SDS011;9548;56.920;14.804;2023-03-11T04:37:03;4.38;;;2.40;;
18838;SDS011;9548;56.920;14.804;2023-03-11T04:39:30;6.03;;;2.58;;
18838;SDS011;9548;56.920;14.804;2023-03-11T04:41:57;8.13;;;2.47;;
18838;SDS011;9548;56.920;14.804;2023-03-11T04:44:25;5.43;;;2.50;;
18838;SDS011;9548;56.920;14.804;2023-03-11T04:46:52;6.47;;;2.63;;
18838;SDS011;9548;56.920;14.804;2023-03-11T04:49:19;5.97;;;2.53;;
18838;SDS011;9548;56.920;14.804;2023-03-11T04:51:46;5.90;;;2.95;;
18838;SDS011;9548;56.920;14.804;2023-03-11T04:54:13;5.97;;;2.50;;
18838;SDS011;9548;56.920;14.804;2023-03-11T04:56:40;6.78;;;2.50;;
18838;SDS011;9548;56.920;14.804;2023-03-11T04:59:06;6.20;;;2.67;;
18838;SDS011;9548;56.920;14.804;2023-03-11T05:01:35;4.95;;;2.58;;
18838;SDS011;9548;56.920;14.804;2023-03-11T05:04:02;7.07;;;2.70;;
18838;SDS011;9548;56.920;14.804;2023-03-11T05:06:29;5.13;;;2.60;;
18838;SDS011;9548;56.920;14.804;2023-03-11T05:08:56;5.73;;;2.73;;
18838;SDS011;9548;56.920;14.804;2023-03-11T05:11:23;4.25;;;2.30;;
18838;SDS011;9548;56.920;14.804;2023-03-11T05:13:50;5.63;;;2.10;;
18838;SDS011;9548;56.920;14.804;2023-03-11T05:16:17;4.30;;;2.25;;
18838;SDS011;9548;56.920;14.804;2023-03-11T05:18:45;7.40;;;2.72;;
18838;SDS011;9548;56.920;14.804;2023-03-11T05:21:12;6.38;;;2.75;;
18838;SDS011;9548;56.920;14.804;2023-03-11T05:23:39;4.15;;;2.50;;
18838;SDS011;9548;56.920;14.804;2023-03-11T05:26:06;6.28;;;2.88;;
18838;SDS011;9548;56.920;14.804;2023-03-11T05:28:33;5.25;;;2.35;;
18838;SDS011;9548;56.920;14.804;2023-03-11T05:31:00;5.07;;;2.60;;
18838;SDS011;9548;56.920;14.804;2023-03-11T05:33:27;4.93;;;2.00;;
18838;SDS011;9548;56.920;14.804;2023-03-11T05:36:03;7.60;;;2.67;;
18838;SDS011;9548;56.920;14.804;2023-03-11T05:38:32;11.50;;;2.63;;
18838;SDS011;9548;56.920;14.804;2023-03-11T05:40:59;5.57;;;2.50;;
18838;SDS011;9548;56.920;14.804;2023-03-11T05:43:26;6.23;;;2.30;;
18838;SDS011;9548;56.920;14.804;2023-03-11T05:45:53;6.60;;;2.73;;
18838;SDS011;9548;56.920;14.804;2023-03-11T05:48:20;4.95;;;2.28;;
18838;SDS011;9548;56.920;14.804;2023-03-11T05:50:47;6.17;;;2.30;;
18838;SDS011;9548;56.920;14.804;2023-03-11T05:53:15;3.92;;;1.42;;
18838;SDS011;9548;56.920;14.804;2023-03-11T05:55:42;4.83;;;2.20;;
18838;SDS011;9548;56.920;14.804;2023-03-11T05:58:09;5.10;;;2.55;;
18838;SDS011;9548;56.920;14.804;2023-03-11T06:00:37;4.75;;;2.38;;
18838;SDS011;9548;56.920;14.804;2023-03-11T06:03:03;6.03;;;2.53;;
18838;SDS011;9548;56.920;14.804;2023-03-11T06:05:30;5.47;;;2.47;;
18838;SDS011;9548;56.920;14.804;2023-03-11T06:07:57;4.03;;;2.40;;
18838;SDS011;9548;56.920;14.804;2023-03-11T06:10:26;7.33;;;2.77;;
18838;SDS011;9548;56.920;14.804;2023-03-11T06:12:52;4.80;;;2.45;;
18838;SDS011;9548;56.920;14.804;2023-03-11T06:15:19;2.53;;;1.57;;
18838;SDS011;9548;56.920;14.804;2023-03-11T06:17:46;4.17;;;2.23;;
18838;SDS011;9548;56.920;14.804;2023-03-11T06:20:13;5.40;;;2.40;;
18838;SDS011;9548;56.920;14.804;2023-03-11T06:22:40;4.60;;;2.60;;
18838;SDS011;9548;56.920;14.804;2023-03-11T06:25:07;7.10;;;2.55;;
18838;SDS011;9548;56.920;14.804;2023-03-11T06:27:36;5.50;;;2.67;;
18838;SDS011;9548;56.920;14.804;2023-03-11T06:30:03;6.30;;;2.35;;
18838;SDS011;9548;56.920;14.804;2023-03-11T06:32:31;4.90;;;2.57;;
18838;SDS011;9548;56.920;14.804;2023-03-11T06:34:59;4.68;;;2.20;;
18838;SDS011;9548;56.920;14.804;2023-03-11T06:37:25;4.70;;;2.50;;
18838;SDS011;9548;56.920;14.804;2023-03-11T06:39:52;6.13;;;2.30;;
18838;SDS011;9548;56.920;14.804;2023-03-11T06:42:20;5.78;;;2.22;;
18838;SDS011;9548;56.920;14.804;2023-03-11T06:44:49;5.03;;;2.45;;
18838;SDS011;9548;56.920;14.804;2023-03-11T06:47:16;4.07;;;2.17;;
18838;SDS011;9548;56.920;14.804;2023-03-11T06:49:43;6.55;;;2.25;;
18838;SDS011;9548;56.920;14.804;2023-03-11T06:52:10;3.67;;;2.25;;
18838;SDS011;9548;56.920;14.804;2023-03-11T06:54:37;4.85;;;2.35;;
18838;SDS011;9548;56.920;14.804;2023-03-11T06:57:05;4.65;;;2.40;;
18838;SDS011;9548;56.920;14.804;2023-03-11T06:59:32;3.10;;;1.70;;
18838;SDS011;9548;56.920;14.804;2023-03-11T07:02:01;3.38;;;1.73;;
18838;SDS011;9548;56.920;14.804;2023-03-11T07:04:29;4.70;;;1.85;;
18838;SDS011;9548;56.920;14.804;2023-03-11T07:06:56;5.82;;;2.17;;
18838;SDS011;9548;56.920;14.804;2023-03-11T07:09:23;4.55;;;2.22;;
18838;SDS011;9548;56.920;14.804;2023-03-11T07:11:51;4.40;;;2.30;;
18838;SDS011;9548;56.920;14.804;2023-03-11T07:14:19;3.60;;;2.15;;
18838;SDS011;9548;56.920;14.804;2023-03-11T07:16:47;5.88;;;2.15;;
18838;SDS011;9548;56.920;14.804;2023-03-11T07:19:15;4.88;;;2.25;;
18838;SDS011;9548;56.920;14.804;2023-03-11T07:21:42;4.03;;;2.08;;
18838;SDS011;9548;56.920;14.804;2023-03-11T07:24:09;5.95;;;2.60;;
18838;SDS011;9548;56.920;14.804;2023-03-11T07:26:37;7.28;;;3.30;;
18838;SDS011;9548;56.920;14.804;2023-03-11T07:29:04;4.80;;;2.70;;
18838;SDS011;9548;56.920;14.804;2023-03-11T07:31:32;5.28;;;2.55;;
18838;SDS011;9548;56.920;14.804;2023-03-11T07:34:00;6.63;;;3.08;;
18838;SDS011;9548;56.920;14.804;2023-03-11T07:36:30;5.97;;;2.72;;
18838;SDS011;9548;56.920;14.804;2023-03-11T07:38:57;7.32;;;2.60;;
18838;SDS011;9548;56.920;14.804;2023-03-11T07:41:28;4.55;;;2.30;;
18838;SDS011;9548;56.920;14.804;2023-03-11T07:43:56;3.75;;;2.10;;
18838;SDS011;9548;56.920;14.804;2023-03-11T07:46:25;5.45;;;2.20;;
18838;SDS011;9548;56.920;14.804;2023-03-11T07:48:53;3.70;;;1.85;;
18838;SDS011;9548;56.920;14.804;2023-03-11T07:51:21;4.03;;;2.03;;
18838;SDS011;9548;56.920;14.804;2023-03-11T07:53:51;5.03;;;2.30;;
18838;SDS011;9548;56.920;14.804;2023-03-11T07:56:20;3.47;;;1.75;;
18838;SDS011;9548;56.920;14.804;2023-03-11T07:58:49;4.32;;;2.20;;
18838;SDS011;9548;56.920;14.804;2023-03-11T08:01:17;4.13;;;2.35;;
18838;SDS011;9548;56.920;14.804;2023-03-11T08:03:46;3.90;;;2.45;;
18838;SDS011;9548;56.920;14.804;2023-03-11T08:06:16;3.97;;;2.30;;
18838;SDS011;9548;56.920;14.804;2023-03-11T08:08:45;4.60;;;2.42;;
18838;SDS011;9548;56.920;14.804;2023-03-11T08:11:13;3.65;;;2.22;;
18838;SDS011;9548;56.920;14.804;2023-03-11T08:13:42;5.38;;;2.25;;
18838;SDS011;9548;56.920;14.804;2023-03-11T08:16:10;3.97;;;2.20;;
18838;SDS011;9548;56.920;14.804;2023-03-11T08:18:39;6.25;;;2.20;;
18838;SDS011;9548;56.920;14.804;2023-03-11T08:21:06;4.18;;;2.47;;
18838;SDS011;9548;56.920;14.804;2023-03-11T08:23:34;5.63;;;2.22;;
18838;SDS011;9548;56.920;14.804;2023-03-11T08:26:01;5.65;;;2.50;;
18838;SDS011;9548;56.920;14.804;2023-03-11T08:28:30;5.35;;;2.75;;
18838;SDS011;9548;56.920;14.804;2023-03-11T08:30:57;3.72;;;2.20;;
18838;SDS011;9548;56.920;14.804;2023-03-11T08:33:24;5.72;;;2.58;;
18838;SDS011;9548;56.920;14.804;2023-03-11T08:35:52;3.72;;;2.15;;
18838;SDS011;9548;56.920;14.804;2023-03-11T08:38:18;3.75;;;2.03;;
18838;SDS011;9548;56.920;14.804;2023-03-11T08:40:46;6.95;;;2.55;;
18838;SDS011;9548;56.920;14.804;2023-03-11T08:43:13;3.05;;;2.08;;
18838;SDS011;9548;56.920;14.804;2023-03-11T08:45:41;2.65;;;1.90;;
18838;SDS011;9548;56.920;14.804;2023-03-11T08:48:09;4.18;;;2.30;;
18838;SDS011;9548;56.920;14.804;2023-03-11T08:50:38;2.88;;;1.83;;
18838;SDS011;9548;56.920;14.804;2023-03-11T08:53:07;4.22;;;2.30;;
18838;SDS011;9548;56.920;14.804;2023-03-11T08:55:34;4.72;;;2.47;;
18838;SDS011;9548;56.920;14.804;2023-03-11T08:58:01;3.78;;;2.30;;
18838;SDS011;9548;56.920;14.804;2023-03-11T09:00:28;3.70;;;2.08;;
18838;SDS011;9548;56.920;14.804;2023-03-11T09:02:56;4.28;;;2.33;;
18838;SDS011;9548;56.920;14.804;2023-03-11T09:05:23;4.90;;;2.78;;
18838;SDS011;9548;56.920;14.804;2023-03-11T09:07:50;4.07;;;2.55;;
18838;SDS011;9548;56.920;14.804;2023-03-11T09:10:17;4.03;;;2.53;;
18838;SDS011;9548;56.920;14.804;2023-03-11T09:12:44;4.78;;;2.25;;
18838;SDS011;9548;56.920;14.804;2023-03-11T09:15:11;6.05;;;2.65;;
18838;SDS011;9548;56.920;14.804;2023-03-11T09:17:38;5.63;;;2.35;;
18838;SDS011;9548;56.920;14.804;2023-03-11T09:20:07;5.20;;;2.55;;
18838;SDS011;9548;56.920;14.804;2023-03-11T09:22:37;4.82;;;2.50;;
18838;SDS011;9548;56.920;14.804;2023-03-11T09:25:04;5.25;;;2.50;;
18838;SDS011;9548;56.920;14.804;2023-03-11T09:27:31;5.18;;;2.38;;
18838;SDS011;9548;56.920;14.804;2023-03-11T09:29:58;4.35;;;2.40;;
18838;SDS011;9548;56.920;14.804;2023-03-11T09:32:25;5.50;;;2.50;;
18838;SDS011;9548;56.920;14.804;2023-03-11T09:34:52;5.57;;;2.67;;
18838;SDS011;9548;56.920;14.804;2023-03-11T09:37:20;4.93;;;2.08;;
18838;SDS011;9548;56.920;14.804;2023-03-11T09:39:47;4.53;;;2.00;;
18838;SDS011;9548;56.920;14.804;2023-03-11T09:42:17;3.92;;;2.13;;
18838;SDS011;9548;56.920;14.804;2023-03-11T09:44:50;3.92;;;2.20;;
18838;SDS011;9548;56.920;14.804;2023-03-11T09:47:38;2.78;;;1.92;;
18838;SDS011;9548;56.920;14.804;2023-03-11T09:50:12;3.65;;;2.38;;
18838;SDS011;9548;56.920;14.804;2023-03-11T09:52:48;4.43;;;2.50;;
18838;SDS011;9548;56.920;14.804;2023-03-11T09:55:34;3.83;;;2.53;;
18838;SDS011;9548;56.920;14.804;2023-03-11T09:58:07;6.68;;;2.35;;
18838;SDS011;9548;56.920;14.804;2023-03-11T10:00:37;4.82;;;2.20;;
18838;SDS011;9548;56.920;14.804;2023-03-11T10:03:05;5.63;;;3.20;;
18838;SDS011;9548;56.920;14.804;2023-03-11T10:05:38;4.32;;;2.13;;
18838;SDS011;9548;56.920;14.804;2023-03-11T10:08:11;4.47;;;2.67;;
18838;SDS011;9548;56.920;14.804;2023-03-11T10:10:49;4.07;;;2.50;;
18838;SDS011;9548;56.920;14.804;2023-03-11T10:13:22;5.95;;;2.45;;
18838;SDS011;9548;56.920;14.804;2023-03-11T10:15:57;4.07;;;2.40;;
18838;SDS011;9548;56.920;14.804;2023-03-11T10:18:35;5.40;;;2.50;;
18838;SDS011;9548;56.920;14.804;2023-03-11T10:21:14;3.50;;;2.28;;
18838;SDS011;9548;56.920;14.804;2023-03-11T10:23:56;3.83;;;2.03;;
18838;SDS011;9548;56.920;14.804;2023-03-11T10:26:30;5.97;;;1.88;;
18838;SDS011;9548;56.920;14.804;2023-03-11T10:29:01;4.85;;;1.75;;
18838;SDS011;9548;56.920;14.804;2023-03-11T10:31:36;3.55;;;2.00;;
18838;SDS011;9548;56.920;14.804;2023-03-11T10:34:10;3.08;;;1.70;;
18838;SDS011;9548;56.920;14.804;2023-03-11T10:36:45;3.22;;;1.95;;
18838;SDS011;9548;56.920;14.804;2023-03-11T10:39:21;2.75;;;1.80;;
18838;SDS011;9548;56.920;14.804;2023-03-11T10:41:49;2.30;;;1.60;;
18838;SDS011;9548;56.920;14.804;2023-03-11T10:44:21;2.67;;;1.60;;
18838;SDS011;9548;56.920;14.804;2023-03-11T10:46:53;3.30;;;1.65;;
18838;SDS011;9548;56.920;14.804;2023-03-11T10:49:20;2.55;;;1.80;;
18838;SDS011;9548;56.920;14.804;2023-03-11T10:51:48;2.28;;;1.65;;
18838;SDS011;9548;56.920;14.804;2023-03-11T10:54:21;1.98;;;1.38;;
18838;SDS011;9548;56.920;14.804;2023-03-11T10:56:53;1.35;;;0.98;;
18838;SDS011;9548;56.920;14.804;2023-03-11T10:59:23;1.52;;;1.00;;
18838;SDS011;9548;56.920;14.804;2023-03-11T11:01:52;1.38;;;1.00;;
18838;SDS011;9548;56.920;14.804;2023-03-11T11:04:24;1.67;;;1.10;;
18838;SDS011;9548;56.920;14.804;2023-03-11T11:06:54;1.60;;;1.05;;
18838;SDS011;9548;56.920;14.804;2023-03-11T11:09:24;1.00;;;0.90;;
18838;SDS011;9548;56.920;14.804;2023-03-11T11:12:02;2.58;;;1.20;;
18838;SDS011;9548;56.920;14.804;2023-03-11T11:14:40;1.30;;;0.98;;
18838;SDS011;9548;56.920;14.804;2023-03-11T11:17:14;2.58;;;0.90;;
18838;SDS011;9548;56.920;14.804;2023-03-11T11:19:43;1.00;;;0.80;;
18838;SDS011;9548;56.920;14.804;2023-03-11T11:22:12;2.22;;;0.77;;
18838;SDS011;9548;56.920;14.804;2023-03-11T11:24:44;1.20;;;0.75;;
18838;SDS011;9548;56.920;14.804;2023-03-11T11:27:15;1.02;;;0.90;;
18838;SDS011;9548;56.920;14.804;2023-03-11T11:29:43;0.85;;;0.55;;
18838;SDS011;9548;56.920;14.804;2023-03-11T11:32:15;1.00;;;0.82;;
18838;SDS011;9548;56.920;14.804;2023-03-11T11:34:55;1.23;;;0.80;;
18838;SDS011;9548;56.920;14.804;2023-03-11T11:37:24;1.40;;;0.85;;
18838;SDS011;9548;56.920;14.804;2023-03-11T11:39:58;1.45;;;0.93;;
18838;SDS011;9548;56.920;14.804;2023-03-11T11:42:34;1.35;;;0.80;;
18838;SDS011;9548;56.920;14.804;2023-03-11T11:45:02;3.10;;;1.00;;
18838;SDS011;9548;56.920;14.804;2023-03-11T11:47:32;1.02;;;0.80;;
18838;SDS011;9548;56.920;14.804;2023-03-11T11:50:02;1.80;;;1.10;;
18838;SDS011;9548;56.920;14.804;2023-03-11T11:52:31;0.70;;;0.70;;
18838;SDS011;9548;56.920;14.804;2023-03-11T11:55:07;1.55;;;0.60;;
18838;SDS011;9548;56.920;14.804;2023-03-11T11:57:44;1.23;;;0.68;;
18838;SDS011;9548;56.920;14.804;2023-03-11T12:00:15;0.68;;;0.60;;
18838;SDS011;9548;56.920;14.804;2023-03-11T12:02:47;0.80;;;0.63;;
18838;SDS011;9548;56.920;14.804;2023-03-11T12:05:24;0.73;;;0.50;;
18838;SDS011;9548;56.920;14.804;2023-03-11T12:07:57;1.25;;;0.50;;
18838;SDS011;9548;56.920;14.804;2023-03-11T12:10:35;1.80;;;0.40;;
18838;SDS011;9548;56.920;14.804;2023-03-11T12:13:17;0.93;;;0.68;;
18838;SDS011;9548;56.920;14.804;2023-03-11T12:16:12;0.90;;;0.40;;
18838;SDS011;9548;56.920;14.804;2023-03-11T12:18:48;0.68;;;0.40;;
18838;SDS011;9548;56.920;14.804;2023-03-11T12:21:24;0.60;;;0.50;;
18838;SDS011;9548;56.920;14.804;2023-03-11T12:24:11;0.52;;;0.40;;
18838;SDS011;9548;56.920;14.804;2023-03-11T12:26:52;1.08;;;0.50;;
18838;SDS011;9548;56.920;14.804;2023-03-11T12:29:23;0.40;;;0.40;;
18838;SDS011;9548;56.920;14.804;2023-03-11T12:31:54;0.40;;;0.40;;
18838;SDS011;9548;56.920;14.804;2023-03-11T12:34:24;0.30;;;0.30;;
18838;SDS011;9548;56.920;14.804;2023-03-11T12:36:52;0.55;;;0.30;;
18838;SDS011;9548;56.920;14.804;2023-03-11T12:39:23;0.30;;;0.30;;
18838;SDS011;9548;56.920;14.804;2023-03-11T12:44:49;0.65;;;0.40;;
18838;SDS011;9548;56.920;14.804;2023-03-11T12:47:24;1.10;;;0.40;;
18838;SDS011;9548;56.920;14.804;2023-03-11T12:49:53;0.63;;;0.38;;
18838;SDS011;9548;56.920;14.804;2023-03-11T12:52:22;0.30;;;0.30;;
18838;SDS011;9548;56.920;14.804;2023-03-11T12:58:00;0.63;;;0.50;;
18838;SDS011;9548;56.920;14.804;2023-03-11T13:00:57;0.65;;;0.40;;
18838;SDS011;9548;56.920;14.804;2023-03-11T13:03:55;0.98;;;0.45;;
18838;SDS011;9548;56.920;14.804;2023-03-11T13:06:34;0.40;;;0.40;;
18838;SDS011;9548;56.920;14.804;2023-03-11T13:09:12;0.30;;;0.30;;
18838;SDS011;9548;56.920;14.804;2023-03-11T13:11:41;0.38;;;0.30;;
18838;SDS011;9548;56.920;14.804;2023-03-11T13:14:26;0.43;;;0.30;;
18838;SDS011;9548;56.920;14.804;2023-03-11T13:16:55;0.30;;;0.30;;
18838;SDS011;9548;56.920;14.804;2023-03-11T13:19:49;0.55;;;0.40;;
18838;SDS011;9548;56.920;14.804;2023-03-11T13:25:32;0.73;;;0.40;;
18838;SDS011;9548;56.920;14.804;2023-03-11T13:31:15;0.52;;;0.40;;
18838;SDS011;9548;56.920;14.804;2023-03-11T13:33:54;0.28;;;0.28;;
18838;SDS011;9548;56.920;14.804;2023-03-11T13:36:27;0.30;;;0.30;;
18838;SDS011;9548;56.920;14.804;2023-03-11T13:39:14;0.40;;;0.40;;
18838;SDS011;9548;56.920;14.804;2023-03-11T13:41:59;0.30;;;0.30;;
18838;SDS011;9548;56.920;14.804;2023-03-11T13:44:29;1.48;;;0.30;;
18838;SDS011;9548;56.920;14.804;2023-03-11T13:47:02;0.43;;;0.30;;
18838;SDS011;9548;56.920;14.804;2023-03-11T13:49:35;0.55;;;0.30;;
18838;SDS011;9548;56.920;14.804;2023-03-11T13:52:08;0.32;;;0.30;;
18838;SDS011;9548;56.920;14.804;2023-03-11T13:54:47;0.75;;;0.40;;
18838;SDS011;9548;56.920;14.804;2023-03-11T13:57:22;1.60;;;0.30;;
18838;SDS011;9548;56.920;14.804;2023-03-11T13:59:51;0.20;;;0.20;;
18838;SDS011;9548;56.920;14.804;2023-03-11T14:02:21;0.77;;;0.32;;
18838;SDS011;9548;56.920;14.804;2023-03-11T14:04:52;1.00;;;0.50;;
18838;SDS011;9548;56.920;14.804;2023-03-11T14:07:25;0.52;;;0.40;;
18838;SDS011;9548;56.920;14.804;2023-03-11T14:12:43;0.60;;;0.30;;
18838;SDS011;9548;56.920;14.804;2023-03-11T14:15:11;0.43;;;0.20;;
18838;SDS011;9548;56.920;14.804;2023-03-11T14:17:42;0.30;;;0.30;;
18838;SDS011;9548;56.920;14.804;2023-03-11T14:20:13;0.47;;;0.40;;
18838;SDS011;9548;56.920;14.804;2023-03-11T14:22:44;0.40;;;0.20;;
18838;SDS011;9548;56.920;14.804;2023-03-11T14:25:15;0.45;;;0.28;;
18838;SDS011;9548;56.920;14.804;2023-03-11T14:27:50;0.30;;;0.30;;
18838;SDS011;9548;56.920;14.804;2023-03-11T14:30:20;0.20;;;0.20;;
18838;SDS011;9548;56.920;14.804;2023-03-11T14:32:56;2.72;;;0.30;;
18838;SDS011;9548;56.920;14.804;2023-03-11T14:35:25;0.30;;;0.30;;
18838;SDS011;9548;56.920;14.804;2023-03-11T14:37:52;0.75;;;0.70;;
18838;SDS011;9548;56.920;14.804;2023-03-11T14:40:26;0.30;;;0.30;;
18838;SDS011;9548;56.920;14.804;2023-03-11T14:42:56;0.82;;;0.25;;
18838;SDS011;9548;56.920;14.804;2023-03-11T14:45:27;0.85;;;0.43;;
18838;SDS011;9548;56.920;14.804;2023-03-11T14:47:59;0.40;;;0.40;;
18838;SDS011;9548;56.920;14.804;2023-03-11T14:50:29;0.20;;;0.20;;
18838;SDS011;9548;56.920;14.804;2023-03-11T14:53:00;0.60;;;0.30;;
18838;SDS011;9548;56.920;14.804;2023-03-11T14:55:31;0.65;;;0.30;;
18838;SDS011;9548;56.920;14.804;2023-03-11T14:58:04;0.20;;;0.20;;
18838;SDS011;9548;56.920;14.804;2023-03-11T15:00:37;0.20;;;0.20;;
18838;SDS011;9548;56.920;14.804;2023-03-11T15:03:12;0.20;;;0.20;;
18838;SDS011;9548;56.920;14.804;2023-03-11T15:05:46;0.73;;;0.30;;
18838;SDS011;9548;56.920;14.804;2023-03-11T15:08:16;0.80;;;0.40;;
18838;SDS011;9548;56.920;14.804;2023-03-11T15:11:12;0.20;;;0.20;;
18838;SDS011;9548;56.920;14.804;2023-03-11T15:13:45;0.30;;;0.20;;
18838;SDS011;9548;56.920;14.804;2023-03-11T15:16:22;1.25;;;0.40;;
18838;SDS011;9548;56.920;14.804;2023-03-11T15:18:57;0.43;;;0.22;;